• Join FlightAware (Why Join?)
  • Login
  • US Flag 
09:35PM EDT


 

Airport Tracker/Info


-or-


 

Live Flight TrackerFlight Track Log ✈ VNR104 ✈ 08-May-2013 ✈ KSUS - KMDW

Flight Track Log - Related Links

Times and Time Zones

All times are in EDT time to prevent confusion due to time zone crossing. See the VNR104 flight status page for this flight to view local times or setup timezone preferences in your user account.

Time Position Orientation Groundspeed Altitude Reporting Facility
EDT Latitude Longitude Course Direction KTS MPH feet Rate Location/Type
05:12PM 38.6833 -90.7167 25° Northeast 196 226 2,500  Level Gateway (St. Louis) TRACON
05:13PM 38.7228 -90.7219 354° North 238 274 3,400 1,500 Climbing Kansas City Center
05:14PM 38.7892 -90.7228 359° North 235 270 4,800 1,860 Climbing Kansas City Center
05:15PM 38.8517 -90.7122 North 238 274 7,300 2,220 Climbing Kansas City Center
05:16PM 38.9019 -90.6597 39° Northeast 235 270 9,500 2,100 Climbing Kansas City Center
05:17PM 38.9525 -90.6056 40° Northeast 235 270 11,700 2,220 Climbing Kansas City Center
05:18PM 38.9581 -90.2252 25° Northeast  Level FlightAware Approximate
05:18PM 39.0047 -90.5525 38° Northeast 236 272 14,200  Level Kansas City Center
05:19PM 39.0572 -90.4981 39° Northeast 238 274 15,000 360 Climbing Kansas City Center
05:20PM 39.1403 -90.4125 39° Northeast 307 353 15,000 720 Level Kansas City Center
05:21PM 39.2086 -90.3406 39° Northeast 317 365 16,500 1,680 Climbing Kansas City Center
05:22PM 39.2708 -90.2761 39° Northeast 293 337 18,500 1,980 Climbing Kansas City Center
05:23PM 39.3289 -90.2144 39° Northeast 277 319 20,600 1,680 Climbing Kansas City Center
05:24PM 39.3917 -90.1511 38° Northeast 281 323 22,000 1,140 Climbing Kansas City Center
05:25PM 39.4581 -90.0814 39° Northeast 299 344 23,000 480 Climbing Kansas City Center
05:26PM 39.5322 -90.0042 39° Northeast 332 382 23,000  Level Kansas City Center
05:27PM 39.6261 -89.9036 40° Northeast 359 413 23,000  Level Kansas City Center
05:28PM 39.7067 -89.8178 39° Northeast 370 426 23,000  Level Kansas City Center
05:29PM 39.7842 -89.7358 39° Northeast 370 426 23,000  Level Kansas City Center
05:30PM 39.8642 -89.6531 38° Northeast 368 423 23,000  Level Kansas City Center
05:31PM 39.8969 -89.6244 34° Northeast 369 425 23,000  Level Chicago Center
05:32PM 39.9789 -89.5447 37° Northeast 368 423 23,000  Level Chicago Center
05:33PM 40.0794 -89.4511 35° Northeast 369 425 23,000  Level Chicago Center
05:34PM 40.1622 -89.3725 36° Northeast 369 425 23,000  Level Chicago Center
05:35PM 40.2436 -89.2922 37° Northeast 367 422 23,000 -720 Level Chicago Center
05:36PM 40.3264 -89.2136 36° Northeast 369 425 21,600 -1,680 Descending Chicago Center
05:37PM 40.4061 -89.1378 36° Northeast 358 412 19,600 -2,100 Descending Chicago Center
05:38PM 40.4975 -89.0497 36° Northeast 344 396 17,300 -2,040 Descending Chicago Center
05:39PM 40.5706 -88.9786 36° Northeast 332 382 15,500 -1,800 Descending Chicago Center
05:40PM 40.6414 -88.9094 37° Northeast 322 371 13,700 -1,260 Descending Chicago Center
05:41PM 40.7139 -88.8369 37° Northeast 315 362 13,000 -360 Descending Chicago Center
05:42PM 40.7831 -88.7686 37° Northeast 313 360 13,000  Level Chicago Center
05:43PM 40.8597 -88.7117 29° Northeast 325 374 13,000  Level Chicago Center
05:44PM 40.9542 -88.6592 23° Northeast 311 358 13,000 -600 Level Chicago Center
05:45PM 41.0333 -88.6133 24° Northeast 311 358 11,800 -1,560 Descending Chicago Center
05:46PM 41.1081 -88.5708 23° Northeast 301 346 9,800 -1,980 Descending Chicago Center
05:47PM 41.1772 -88.5308 24° Northeast 280 322 7,800 -1,800 Descending Chicago Center
05:48PM 41.2494 -88.4894 23° Northeast 282 325 6,100 -960 Descending Chicago Center
05:49PM 41.3192 -88.4489 24° Northeast 276 318 5,900 -120 Descending Chicago Center
05:50PM 41.3853 -88.3736 40° Northeast 278 320 5,900 -120 Level Chicago Center
05:51PM 41.4292 -88.2950 53° Northeast 268 308 5,700 -780 Descending Chicago Center
05:52PM 41.4750 -88.2144 53° Northeast 272 313 4,400 -900 Descending Chicago Center
05:53PM 41.5192 -88.1361 53° Northeast 265 305 3,900 -300 Descending Chicago Center
05:55PM 41.5633 -88.0556 54° Northeast 265 305 3,900  Level Chicago Center
05:56PM 41.6094 -87.9758 52° Northeast 268 308 3,900  Level Chicago Center
05:57PM 41.6611 -87.9111 43° Northeast 260 299 3,900 -720 Level Chicago Center
05:58PM 41.7103 -87.8469 44° Northeast 229 264 2,500 -1,320 Descending Chicago Center
05:58PM 41.7167 -87.8333 58° Northeast 179 206 2,100 -840 Descending Chicago TRACON
05:59PM 41.7500 -87.7833 48° Northeast 133 153 1,400 -720 Descending Chicago TRACON
06:02PM 41.7833 -87.7500 51° Northeast  Level FlightAware Approximate